Etusivu
METAR-TAF:

METAR-TAF

Lentoasemat :

Waskaganish, Quebec, Kanada

Leveyspiiri: 51-29N, Pituuspiiri: 078-45W, korkeus merenpinnasta: 23 m

Tämänhetkinen sää

Tämä raportti tehtiin 15 tuntia ja 33 minuuttia sitten, kello 21.00 UTC
Tuuli 6 kn koillisesta, vaihdellen pohjoisen/koillisen ja idän välillä
Lämpötila 10°C
Kosteus 23%
Ilmanpaine 1026 hPa
Näkyvyys: 24.1 km
selkeää

METAR: CYKQ 312100Z 05006KT 030V090 15SM SKC 10/M10 A3029 RMK LAST STFD OBS/NEXT 011300UTC SLP259

Aika: 08:33 (12:33 UTC)

Sääennuste

Tämä raportti tehtiin 21 tuntia ja 55 minuuttia sitten, kello 14.38 UTC
Ennuste voimassa 31. päivästä klo 15 UTC - 31. päivään klo 21 UTC
Tuuli 10 kn idästä puuskistuen 20 kn:hen
Näkyvyys: 10 km
selkeää

TAF: CYKQ 311438Z 3115/3121 09010G20KT P6SM SKC RMK NXT FCST WILL BE ISSUED AT 011445Z

Säähavainnot ja -ennusteet yli 4000 lentoasemalta (METAR- ja TAF-raportit).

Käytössä olevat sääasemat on merkitty karttaan keltaisilla ja punaisilla pisteillä.

Aseta hiiri pisteen päälle nähdäksesi sääaseman nimen.

Klikkaa sitten nähdäksesi säähavainnot ja -ennusteet.

Kartan vaihtaminen: klikkaa mustalla rastilla varustettuja vihreitä pisteitä, niin voit zoomata sisään; viivalla varustettua vihreää pistettä, niin voit zoomata ulos tai vihreitä nuolia, niin pääset viereisille kartoille.


METAR-TAF: